Country
Station

 

Weather  for  Aeroporto Internacional Guararapes (Recife/PE)  -  Brazil    Brazil

  
24 °C (75 °F)
    
 
 

Current METAR for Aeroporto Internacional Guararapes (Recife/PE) is :

SBRF 171100Z 19006KT 9999 FEW023 BKN060 24/21 Q1019

 

This is a report for Aeroporto Internacional Guararapes (Recife/PE) - Brazil.
 
The report was made 14 minutes ago, at 11:00 UTC .
The wind was blowing at a speed of 3.1 meters per second (6.9 miles per hour) from south (190°).
 
The temperature was 24 °C (75 °F), with a dew-point at 21 °C (70 °F).
The temperature felt like 24 °C (75 °F).
 
The atmospheric pressure was 1019 hPa (30.09 inHg).
The relative humidity was 83.3%.
 
There were a few clouds at a height of 701 meters (2300 feet) and broken clouds at a height of 1829 meters (6000 feet).
 
The overall visibility was greater than 10 kilometers (6.2 miles).
 

 
 
 
 

Country :   A   B   C   D   E   F   G   H   I   J   K   L   M   N   O   P   Q   R   S   T   U   V   W   Y   Z

 

Site Info  |  Disclaimer  |  Credits  |  Privacy
Contact us  |  Add to favorites
© 2013-2018 METARs - All rights reserved